Time;durP1;ratioP1;P1;durP2;ratioP2;P2;SDS_P1;SDS_P2;PMS_P1;PMS_P2;Temp;Humidity;BMP_temperature;BMP_pressure;BME280_temperature;BME280_humidity;BME280_pressure;Samples;Min_cycle;Max_cycle;Signal;HPM_P1;HPM_P2
2022/04/10 00:00:36;;;;;;;2.13;0.50;;;13.10;47.60;;;;;;5073604;28;20467;-68
2022/04/10 00:03:02;;;;;;;2.10;0.40;;;13.10;47.60;;;;;;5073650;28;20047;-69
2022/04/10 00:05:28;;;;;;;2.83;0.40;;;13.00;47.50;;;;;;5073202;28;20048;-69
2022/04/10 00:07:54;;;;;;;2.00;0.50;;;13.00;47.60;;;;;;5073149;28;20048;-69
2022/04/10 00:10:20;;;;;;;3.17;0.30;;;13.10;47.50;;;;;;5073000;28;20064;-68
2022/04/10 00:12:45;;;;;;;0.95;0.30;;;13.00;47.50;;;;;;5073157;28;20044;-68
2022/04/10 00:15:11;;;;;;;1.45;0.40;;;13.00;47.50;;;;;;5073187;28;20040;-70
2022/04/10 00:17:38;;;;;;;1.92;0.40;;;13.00;47.50;;;;;;5091382;28;20105;-68
2022/04/10 00:20:05;;;;;;;2.05;0.60;;;13.00;47.40;;;;;;5074034;28;20499;-69
2022/04/10 00:22:48;;;;;;;1.35;0.40;;;13.00;47.40;;;;;;5091825;28;20044;-67
2022/04/10 00:25:16;;;;;;;1.90;0.50;;;13.00;47.40;;;;;;5091406;28;20047;-68
2022/04/10 00:27:42;;;;;;;1.70;0.40;;;13.00;47.40;;;;;;5072747;28;20389;-68
2022/04/10 00:30:10;;;;;;;2.08;0.50;;;13.00;47.40;;;;;;5090385;28;20120;-68
2022/04/10 00:32:39;;;;;;;2.13;0.40;;;13.10;47.50;;;;;;5073142;28;20487;-70
2022/04/10 00:35:06;;;;;;;2.15;0.57;;;13.00;47.40;;;;;;5073032;28;20047;-69
2022/04/10 00:37:32;;;;;;;1.98;0.40;;;13.00;47.40;;;;;;5073200;28;20119;-69
2022/04/10 00:39:58;;;;;;;2.08;0.60;;;13.00;47.40;;;;;;5073535;28;20035;-68
2022/04/10 00:42:31;;;;;;;2.33;0.32;;;13.00;47.40;;;;;;5090695;28;20403;-70
2022/04/10 00:44:57;;;;;;;1.17;0.50;;;13.00;47.40;;;;;;5090849;28;20048;-68
2022/04/10 00:47:23;;;;;;;3.10;0.73;;;13.00;47.40;;;;;;5090665;28;20117;-69
2022/04/10 00:49:48;;;;;;;2.67;0.47;;;13.00;47.40;;;;;;5072302;28;20483;-69
2022/04/10 00:52:14;;;;;;;1.50;0.35;;;13.00;47.40;;;;;;5090759;28;20083;-68
2022/04/10 00:54:40;;;;;;;1.45;0.47;;;13.00;47.30;;;;;;5091198;28;20043;-69
2022/04/10 00:57:06;;;;;;;2.97;0.40;;;13.00;47.40;;;;;;5072706;28;20536;-68
2022/04/10 00:59:32;;;;;;;2.25;0.30;;;12.90;47.30;;;;;;5073123;28;20495;-71
2022/04/10 01:01:57;;;;;;;1.38;0.40;;;13.00;47.40;;;;;;5091179;28;20036;-67
2022/04/10 01:04:23;;;;;;;2.15;0.45;;;13.00;47.40;;;;;;5090930;28;20680;-71
2022/04/10 01:06:53;;;;;;;1.88;0.50;;;13.00;47.50;;;;;;5072771;28;20046;-68
2022/04/10 01:09:20;;;;;;;1.55;0.30;;;13.00;47.40;;;;;;5090378;28;20036;-68
2022/04/10 01:11:46;;;;;;;1.75;0.60;;;13.00;47.40;;;;;;5072431;28;20079;-68
2022/04/10 01:14:13;;;;;;;3.60;0.40;;;13.00;47.40;;;;;;5072861;28;20449;-69
2022/04/10 01:16:41;;;;;;;1.67;0.57;;;13.00;47.40;;;;;;5072385;28;20078;-69
2022/04/10 01:19:07;;;;;;;2.83;0.43;;;13.00;47.40;;;;;;5091192;28;20075;-69
2022/04/10 01:21:39;;;;;;;1.73;0.30;;;13.00;47.40;;;;;;5072838;28;20117;-68
2022/04/10 01:24:06;;;;;;;2.50;0.38;;;13.00;47.40;;;;;;5072781;28;20059;-68
2022/04/10 01:26:34;;;;;;;3.53;0.55;;;13.00;47.40;;;;;;5090585;28;20325;-70
2022/04/10 01:29:08;;;;;;;3.60;0.60;;;13.00;47.40;;;;;;5071735;28;20472;-70
2022/04/10 01:31:36;;;;;;;4.05;0.47;;;12.90;47.40;;;;;;5090594;28;20040;-69
2022/04/10 01:34:05;;;;;;;1.33;0.40;;;12.90;47.30;;;;;;5072467;28;20059;-67
2022/04/10 01:36:32;;;;;;;1.67;0.88;;;12.90;47.40;;;;;;5072483;28;20365;-71
2022/04/10 01:39:00;;;;;;;2.95;0.40;;;12.90;47.40;;;;;;5090747;28;20407;-70
2022/04/10 01:41:27;;;;;;;3.47;0.60;;;12.90;47.40;;;;;;5072632;28;20040;-67
2022/04/10 01:43:55;;;;;;;1.98;0.30;;;12.90;47.40;;;;;;5072564;28;20067;-68
2022/04/10 01:46:22;;;;;;;3.47;0.40;;;12.90;47.30;;;;;;5072033;28;20484;-69
2022/04/10 01:48:48;;;;;;;2.92;0.88;;;12.90;47.40;;;;;;5071644;28;20055;-69
2022/04/10 01:51:15;;;;;;;3.10;0.57;;;12.90;47.30;;;;;;5072157;28;20119;-68
2022/04/10 01:53:43;;;;;;;2.92;0.70;;;12.90;47.30;;;;;;5074400;28;20067;-70
2022/04/10 01:56:10;;;;;;;0.82;0.20;;;12.90;48.10;;;;;;5075723;28;20040;-69
2022/04/10 01:58:39;;;;;;;2.58;0.40;;;12.90;47.30;;;;;;5094159;28;20396;-69
2022/04/10 02:01:06;;;;;;;2.42;0.30;;;12.90;47.30;;;;;;5094258;28;20073;-68
2022/04/10 02:03:33;;;;;;;2.55;0.90;;;12.80;47.20;;;;;;5075489;28;20092;-68
2022/04/10 02:06:00;;;;;;;1.83;0.40;;;12.90;47.30;;;;;;5075658;28;20372;-69
2022/04/10 02:08:27;;;;;;;2.35;0.60;;;12.90;47.30;;;;;;5075488;28;20040;-68
2022/04/10 02:10:53;;;;;;;1.17;0.35;;;12.90;47.30;;;;;;5093092;28;20391;-68
2022/04/10 02:13:19;;;;;;;1.90;0.35;;;12.90;47.30;;;;;;5075634;28;20101;-69
2022/04/10 02:15:45;;;;;;;2.28;0.40;;;12.90;47.30;;;;;;5093480;28;20364;-69
2022/04/10 02:18:11;;;;;;;1.88;0.30;;;12.90;47.40;;;;;;5075622;28;20418;-69
2022/04/10 02:20:37;;;;;;;2.03;0.35;;;12.80;47.20;;;;;;5076000;28;20040;-69
2022/04/10 02:23:02;;;;;;;2.42;0.40;;;12.80;47.20;;;;;;5075801;28;20369;-69
2022/04/10 02:25:28;;;;;;;2.15;0.50;;;12.80;47.20;;;;;;5074949;28;20373;-67
2022/04/10 02:27:54;;;;;;;3.10;0.52;;;12.80;47.20;;;;;;5075130;28;20078;-69
2022/04/10 02:30:19;;;;;;;3.17;0.30;;;12.80;47.20;;;;;;5074828;28;20039;-68
2022/04/10 02:32:45;;;;;;;1.80;0.50;;;12.80;47.20;;;;;;5075114;28;20468;-68
2022/04/10 02:35:12;;;;;;;2.95;0.35;;;12.80;47.20;;;;;;5075289;28;20040;-68
2022/04/10 02:37:39;;;;;;;3.53;0.40;;;12.80;47.20;;;;;;5074745;28;20047;-67
2022/04/10 02:40:08;;;;;;;2.92;0.40;;;12.80;48.00;;;;;;5075473;28;20479;-67
2022/04/10 02:42:35;;;;;;;2.25;0.40;;;12.80;47.20;;;;;;5074976;28;20123;-68
2022/04/10 02:45:01;;;;;;;3.33;0.40;;;12.80;47.20;;;;;;5075020;28;20047;-69
2022/04/10 02:47:27;;;;;;;3.78;0.50;;;12.80;47.20;;;;;;5074567;28;20112;-71
2022/04/10 02:49:56;;;;;;;1.92;0.30;;;12.80;47.20;;;;;;5074257;28;20074;-68
2022/04/10 02:52:22;;;;;;;2.78;0.45;;;12.80;47.20;;;;;;5074529;28;20102;-69
2022/04/10 02:54:48;;;;;;;1.08;0.30;;;12.80;47.30;;;;;;5074845;28;20047;-68
2022/04/10 02:57:14;;;;;;;3.47;0.43;;;12.80;47.30;;;;;;5074559;28;20044;-69
2022/04/10 02:59:40;;;;;;;1.88;0.60;;;12.80;47.30;;;;;;5075182;28;20510;-71
2022/04/10 03:02:06;;;;;;;2.55;0.40;;;12.80;47.30;;;;;;5092330;28;20040;-68
2022/04/10 03:04:32;;;;;;;2.40;0.40;;;12.80;47.30;;;;;;5091626;28;20032;-68
2022/04/10 03:06:57;;;;;;;2.38;0.70;;;12.80;47.20;;;;;;5074373;28;20047;-68
2022/04/10 03:09:23;;;;;;;2.33;0.60;;;12.80;47.20;;;;;;5074169;28;20222;-68
2022/04/10 03:11:49;;;;;;;1.48;0.40;;;12.80;47.20;;;;;;5073980;28;20048;-70
2022/04/10 03:14:15;;;;;;;3.33;0.40;;;12.80;47.20;;;;;;5074532;28;20051;-70
2022/04/10 03:16:42;;;;;;;1.83;0.32;;;12.80;47.20;;;;;;5073784;28;20475;-68
2022/04/10 03:19:08;;;;;;;2.67;0.73;;;12.70;47.20;;;;;;5092947;28;20115;-68
2022/04/10 03:21:34;;;;;;;3.13;0.60;;;12.70;47.20;;;;;;5092733;28;20555;-67
2022/04/10 03:24:01;;;;;;;2.42;0.55;;;12.80;47.30;;;;;;5092147;28;20115;-68
2022/04/10 03:26:27;;;;;;;2.03;0.60;;;12.80;47.20;;;;;;5073963;28;20055;-68
2022/04/10 03:28:53;;;;;;;1.65;0.32;;;12.80;47.20;;;;;;5073909;28;20044;-68
2022/04/10 03:31:20;;;;;;;1.35;0.30;;;12.70;47.20;;;;;;5073525;28;20031;-68
2022/04/10 03:33:46;;;;;;;1.80;0.32;;;12.70;47.20;;;;;;5074049;28;20040;-70
2022/04/10 03:36:12;;;;;;;2.30;0.38;;;12.70;47.20;;;;;;5073830;28;20086;-67
2022/04/10 03:38:38;;;;;;;1.67;0.40;;;12.70;47.20;;;;;;5073864;28;20075;-67
2022/04/10 03:41:04;;;;;;;2.00;0.55;;;12.70;47.20;;;;;;5074181;28;20507;-69
2022/04/10 03:43:31;;;;;;;1.98;0.20;;;12.70;47.20;;;;;;5074060;28;20040;-67
2022/04/10 03:45:56;;;;;;;2.65;0.50;;;12.80;47.20;;;;;;5073428;28;20118;-68
2022/04/10 03:48:22;;;;;;;3.00;1.20;;;12.70;47.30;;;;;;5073417;28;20143;-67
2022/04/10 03:50:47;;;;;;;1.00;0.50;;;12.70;47.20;;;;;;5073027;28;20622;-67
2022/04/10 03:53:13;;;;;;;2.00;0.40;;;12.70;47.20;;;;;;5073749;28;20538;-68
2022/04/10 03:55:39;;;;;;;3.13;0.52;;;12.70;47.20;;;;;;5073701;28;20044;-67
2022/04/10 03:58:04;;;;;;;2.55;0.40;;;12.70;47.30;;;;;;5073499;28;20137;-67
2022/04/10 04:00:30;;;;;;;1.42;0.28;;;12.60;47.20;;;;;;5057627;28;20407;-67
2022/04/10 04:02:56;;;;;;;1.90;0.38;;;12.70;47.30;;;;;;5091545;28;20040;-67
2022/04/10 04:05:21;;;;;;;2.40;0.30;;;12.70;47.30;;;;;;5073719;28;20217;-71
2022/04/10 04:07:47;;;;;;;2.25;0.50;;;12.70;47.30;;;;;;5092080;28;20093;-68
2022/04/10 04:10:13;;;;;;;1.90;0.40;;;12.70;47.20;;;;;;5072728;28;20089;-68
2022/04/10 04:12:39;;;;;;;2.88;0.60;;;12.70;47.30;;;;;;5073116;28;20056;-68
2022/04/10 04:15:05;;;;;;;1.35;0.38;;;12.70;47.30;;;;;;5073703;28;20047;-68
2022/04/10 04:17:30;;;;;;;1.30;0.40;;;12.70;47.30;;;;;;5090630;28;20079;-68
2022/04/10 04:19:56;;;;;;;1.88;0.30;;;12.70;47.30;;;;;;5073524;28;20076;-68
2022/04/10 04:22:22;;;;;;;2.03;0.30;;;12.70;47.30;;;;;;5073534;28;20066;-71
2022/04/10 04:24:48;;;;;;;1.83;0.38;;;12.70;47.30;;;;;;5073136;28;20052;-69
2022/04/10 04:27:13;;;;;;;2.70;0.50;;;12.70;47.30;;;;;;5073053;28;20126;-69
2022/04/10 04:29:39;;;;;;;2.95;0.40;;;12.70;47.30;;;;;;5072679;28;20051;-71
2022/04/10 04:32:05;;;;;;;1.60;0.40;;;12.60;47.30;;;;;;5073112;28;20122;-67
2022/04/10 04:34:31;;;;;;;1.73;0.30;;;12.70;47.30;;;;;;5073061;28;20044;-69
2022/04/10 04:36:57;;;;;;;3.75;0.30;;;12.70;47.30;;;;;;5090833;28;20051;-69
2022/04/10 04:39:23;;;;;;;1.65;0.20;;;12.70;47.80;;;;;;5073329;28;20032;-68
2022/04/10 04:41:49;;;;;;;2.65;0.40;;;12.70;47.30;;;;;;5072967;28;20044;-67
2022/04/10 04:44:16;;;;;;;2.80;0.50;;;12.70;47.40;;;;;;5072877;28;20055;-70
2022/04/10 04:46:42;;;;;;;2.33;0.40;;;12.70;47.40;;;;;;5072612;28;20504;-68
2022/04/10 04:49:08;;;;;;;1.85;0.40;;;12.70;47.40;;;;;;5071504;28;20051;-70
2022/04/10 04:51:36;;;;;;;1.42;0.40;;;12.70;47.40;;;;;;5072280;28;20606;-69
2022/04/10 04:54:03;;;;;;;1.92;0.57;;;12.70;47.40;;;;;;5072614;28;20040;-69
2022/04/10 04:56:29;;;;;;;2.33;0.50;;;12.70;47.40;;;;;;5072949;28;20039;-69
2022/04/10 04:58:54;;;;;;;1.00;0.20;;;12.70;47.40;;;;;;5072775;28;20373;-70
2022/04/10 05:01:20;;;;;;;3.63;0.82;;;12.70;47.40;;;;;;5073279;28;20126;-67
2022/04/10 05:03:46;;;;;;;2.15;0.20;;;12.70;47.30;;;;;;5091045;28;20466;-67
2022/04/10 05:06:12;;;;;;;2.78;0.30;;;12.70;47.40;;;;;;5072598;28;20392;-69
2022/04/10 05:08:39;;;;;;;1.67;0.20;;;12.70;47.40;;;;;;5072833;28;20040;-68
2022/04/10 05:11:06;;;;;;;2.25;0.55;;;12.70;47.40;;;;;;5072634;28;20387;-68
2022/04/10 05:13:32;;;;;;;1.15;0.20;;;12.70;47.30;;;;;;5072722;28;20092;-69
2022/04/10 05:15:57;;;;;;;1.77;0.30;;;12.70;47.40;;;;;;5072666;28;20547;-71
2022/04/10 05:18:23;;;;;;;1.40;0.32;;;12.70;47.30;;;;;;5072500;28;20044;-68
2022/04/10 05:20:49;;;;;;;1.45;0.30;;;12.70;48.00;;;;;;5090869;28;20036;-67
2022/04/10 05:23:19;;;;;;;1.92;0.40;;;12.70;47.30;;;;;;5072799;28;20031;-68
2022/04/10 05:25:44;;;;;;;1.67;0.20;;;12.80;47.30;;;;;;5072771;28;20040;-67
2022/04/10 05:28:11;;;;;;;1.77;0.38;;;12.70;47.20;;;;;;5091388;28;20053;-69
2022/04/10 05:30:36;;;;;;;1.48;0.30;;;12.80;48.00;;;;;;5075870;28;20118;-69
2022/04/10 05:33:02;;;;;;;1.75;0.30;;;12.70;47.10;;;;;;5076576;28;20123;-67
2022/04/10 05:35:31;;;;;;;2.03;0.30;;;12.80;47.20;;;;;;5094587;28;20094;-68
2022/04/10 05:37:56;;;;;;;1.95;0.60;;;12.80;47.20;;;;;;5076251;28;20131;-69
2022/04/10 05:40:22;;;;;;;1.58;0.30;;;12.80;47.20;;;;;;5076358;28;20472;-69
2022/04/10 05:42:48;;;;;;;1.20;0.30;;;12.70;47.10;;;;;;5094526;28;20047;-67
2022/04/10 05:45:16;;;;;;;1.90;0.25;;;12.80;47.20;;;;;;5094179;28;20044;-69
2022/04/10 05:47:43;;;;;;;1.27;0.25;;;12.80;47.20;;;;;;5075794;28;20044;-71
2022/04/10 05:50:10;;;;;;;1.27;0.20;;;12.80;47.20;;;;;;5059109;28;20422;-67
2022/04/10 05:52:38;;;;;;;1.75;0.30;;;12.80;47.10;;;;;;5075981;28;20048;-70
2022/04/10 05:55:05;;;;;;;1.75;0.20;;;12.80;47.10;;;;;;5076304;28;20502;-67
2022/04/10 05:57:37;;;;;;;1.80;0.80;;;12.80;47.10;;;;;;5093976;28;20695;-67
2022/04/10 06:00:06;;;;;;;1.50;0.20;;;12.80;47.10;;;;;;5076133;28;20036;-67
2022/04/10 06:02:32;;;;;;;1.48;0.20;;;12.80;47.10;;;;;;5075975;28;20059;-69
2022/04/10 06:04:58;;;;;;;1.30;0.20;;;12.80;47.00;;;;;;5075939;28;20032;-67
2022/04/10 06:07:24;;;;;;;1.75;0.30;;;12.80;47.00;;;;;;5075673;28;20449;-67
2022/04/10 06:09:52;;;;;;;1.45;0.40;;;12.80;47.00;;;;;;5093757;28;20032;-69
2022/04/10 06:12:18;;;;;;;1.17;0.20;;;12.80;47.00;;;;;;5093212;28;20036;-67
2022/04/10 06:14:44;;;;;;;1.23;0.20;;;12.80;47.00;;;;;;5075733;28;20104;-67
2022/04/10 06:17:10;;;;;;;1.05;0.30;;;12.80;47.00;;;;;;5093487;28;20483;-69
2022/04/10 06:19:35;;;;;;;1.52;0.25;;;12.90;47.00;;;;;;5075813;28;20055;-68
2022/04/10 06:22:02;;;;;;;0.70;0.10;;;12.80;47.00;;;;;;5093959;28;20571;-67
2022/04/10 06:24:27;;;;;;;1.42;0.20;;;12.90;47.80;;;;;;5076029;28;20115;-70
2022/04/10 06:26:54;;;;;;;0.90;0.13;;;12.90;47.00;;;;;;5074592;28;20139;-68
2022/04/10 06:29:20;;;;;;;2.72;0.20;;;12.90;47.00;;;;;;5075208;28;20044;-68
2022/04/10 06:31:46;;;;;;;1.05;0.20;;;12.90;47.00;;;;;;5074864;28;20527;-68
2022/04/10 06:34:12;;;;;;;1.25;0.20;;;12.90;47.00;;;;;;5074821;28;20036;-67
2022/04/10 06:36:39;;;;;;;1.80;0.30;;;12.90;46.90;;;;;;5093158;28;20047;-71
2022/04/10 06:39:05;;;;;;;1.92;0.20;;;12.90;46.90;;;;;;5074313;28;20545;-69
2022/04/10 06:41:34;;;;;;;0.63;0.45;;;12.90;47.00;;;;;;5075696;28;20032;-67
2022/04/10 06:44:00;;;;;;;0.80;0.20;;;12.90;46.80;;;;;;5074724;28;20055;-67
2022/04/10 06:46:28;;;;;;;0.98;0.20;;;12.90;46.80;;;;;;5074531;28;20056;-67
2022/04/10 06:48:54;;;;;;;1.40;0.25;;;13.00;46.90;;;;;;5074978;28;20052;-68
2022/04/10 06:51:21;;;;;;;0.68;0.10;;;12.90;46.80;;;;;;5074321;28;20040;-69
2022/04/10 06:53:47;;;;;;;1.42;0.17;;;12.90;46.80;;;;;;5057814;28;20054;-67
2022/04/10 06:56:13;;;;;;;1.58;0.40;;;13.00;46.90;;;;;;5074994;28;20047;-69
2022/04/10 06:58:39;;;;;;;0.43;0.10;;;13.00;46.80;;;;;;5092824;28;20032;-67
2022/04/10 07:01:05;;;;;;;0.98;0.10;;;13.00;46.80;;;;;;5093362;28;20376;-67
2022/04/10 07:03:31;;;;;;;1.13;0.20;;;13.00;46.70;;;;;;5074578;28;20036;-67
2022/04/10 07:05:57;;;;;;;2.35;0.60;;;13.00;46.70;;;;;;5074411;28;20048;-69
2022/04/10 07:08:22;;;;;;;0.77;0.35;;;13.10;46.70;;;;;;5092655;28;20036;-69
2022/04/10 07:10:48;;;;;;;1.25;0.20;;;13.10;46.70;;;;;;5074299;28;20385;-69
2022/04/10 07:13:17;;;;;;;0.52;0.10;;;13.10;46.70;;;;;;5092116;28;20080;-67
2022/04/10 07:15:44;;;;;;;1.63;0.10;;;13.10;46.70;;;;;;5092665;28;20395;-68
2022/04/10 07:18:12;;;;;;;1.27;0.20;;;13.10;46.70;;;;;;5074178;28;20059;-68
2022/04/10 07:20:38;;;;;;;1.35;0.20;;;13.10;46.70;;;;;;5092653;28;20040;-68
2022/04/10 07:25:50;;;;;;;1.13;0.20;;;13.10;46.70;;;;;;5074111;28;20456;-67
2022/04/10 07:28:15;;;;;;;1.10;0.20;;;13.10;46.60;;;;;;5057328;28;20178;-67
2022/04/10 07:30:50;;;;;;;0.80;0.10;;;13.10;46.60;;;;;;5073773;28;20119;-67
2022/04/10 07:33:16;;;;;;;2.17;0.47;;;13.10;46.50;;;;;;5073887;28;20028;-68
2022/04/10 07:35:43;;;;;;;0.55;0.10;;;13.10;46.50;;;;;;5073946;28;20040;-67
2022/04/10 07:38:10;;;;;;;0.80;0.20;;;13.10;46.50;;;;;;5073724;28;20047;-67
2022/04/10 07:40:36;;;;;;;2.20;0.40;;;13.20;46.50;;;;;;5074277;28;20071;-67
2022/04/10 07:43:02;;;;;;;0.50;0.10;;;13.20;46.40;;;;;;5074300;28;20043;-68
2022/04/10 07:48:13;;;;;;;0.75;0.10;;;13.30;46.10;;;;;;5073169;28;20048;-67
2022/04/10 07:50:42;;;;;;;1.20;0.20;;;13.40;46.10;;;;;;5072764;28;20094;-67
2022/04/10 07:53:08;;;;;;;1.13;0.10;;;13.30;45.80;;;;;;5073298;28;20321;-67
2022/04/10 07:55:33;;;;;;;0.68;0.10;;;13.40;45.80;;;;;;5091821;28;20119;-67
2022/04/10 07:58:02;;;;;;;1.45;0.20;;;13.40;45.80;;;;;;5073709;28;20036;-68
2022/04/10 08:00:32;;;;;;;0.80;0.10;;;13.40;45.80;;;;;;5091726;28;20391;-68
2022/04/10 08:02:58;;;;;;;0.60;0.10;;;13.40;45.80;;;;;;5073687;28;20554;-67
2022/04/10 08:05:24;;;;;;;2.22;0.25;;;13.40;45.80;;;;;;5073572;28;20586;-67
2022/04/10 08:07:50;;;;;;;2.20;0.43;;;13.40;45.80;;;;;;5073184;28;20393;-68
2022/04/10 08:10:16;;;;;;;0.32;0.10;;;13.40;45.80;;;;;;5073466;28;20086;-68
2022/04/10 08:12:43;;;;;;;0.70;0.22;;;13.40;45.90;;;;;;5073144;28;20036;-67
2022/04/10 08:15:10;;;;;;;1.40;0.43;;;13.30;45.90;;;;;;5073018;28;20386;-67
2022/04/10 08:17:36;;;;;;;1.50;0.13;;;13.30;46.00;;;;;;5073710;28;20093;-71
2022/04/10 08:20:04;;;;;;;1.65;0.28;;;13.20;46.00;;;;;;5091116;28;20426;-68
2022/04/10 08:22:31;;;;;;;1.45;0.10;;;13.20;46.00;;;;;;5073390;28;20055;-66
2022/04/10 08:25:06;;;;;;;1.48;0.25;;;13.20;46.00;;;;;;5073632;28;20429;-68
2022/04/10 08:27:32;;;;;;;2.08;0.20;;;13.20;46.00;;;;;;5073050;28;20044;-67
2022/04/10 08:29:57;;;;;;;1.48;0.40;;;13.20;46.10;;;;;;5072981;28;20132;-67
2022/04/10 08:32:23;;;;;;;0.90;0.20;;;13.20;46.00;;;;;;5072598;28;20039;-67
2022/04/10 08:34:50;;;;;;;0.65;0.10;;;13.20;45.90;;;;;;5056420;28;20118;-67
2022/04/10 08:37:19;;;;;;;1.85;0.22;;;13.20;45.90;;;;;;5090879;28;20084;-68
2022/04/10 08:39:45;;;;;;;1.08;0.10;;;13.30;45.90;;;;;;5090851;28;20048;-68
2022/04/10 08:42:10;;;;;;;0.93;0.10;;;13.30;45.80;;;;;;5091456;28;20119;-68
2022/04/10 08:44:36;;;;;;;0.70;0.10;;;13.30;45.70;;;;;;5091050;28;20032;-66
2022/04/10 08:47:03;;;;;;;0.35;0.15;;;13.40;45.70;;;;;;5072022;28;20044;-68
2022/04/10 08:49:30;;;;;;;1.38;0.20;;;13.40;45.70;;;;;;5072048;28;20510;-67
2022/04/10 08:51:58;;;;;;;1.10;0.10;;;13.40;45.60;;;;;;5090293;28;20032;-67
2022/04/10 08:54:24;;;;;;;3.55;0.20;;;13.40;45.60;;;;;;5072907;28;20039;-68
2022/04/10 08:56:50;;;;;;;0.30;0.10;;;13.40;45.50;;;;;;5091055;28;20290;-67
2022/04/10 08:59:20;;;;;;;1.30;0.15;;;13.50;45.40;;;;;;5072517;28;20225;-68
2022/04/10 09:01:46;;;;;;;1.50;0.30;;;13.40;45.20;;;;;;5073343;28;20074;-67
2022/04/10 09:04:13;;;;;;;2.38;0.20;;;13.50;45.20;;;;;;5076876;28;20054;-67
2022/04/10 09:06:40;;;;;;;1.42;0.20;;;13.40;45.20;;;;;;5076665;28;20044;-68
2022/04/10 09:09:11;;;;;;;1.58;0.32;;;13.40;45.20;;;;;;5094960;28;20044;-68
2022/04/10 09:11:37;;;;;;;;;;;13.40;45.20;;;;;;5076745;28;20572;-68
2022/04/10 09:14:03;;;;;;;1.13;0.17;;;13.40;45.20;;;;;;5076418;28;19916;-68
2022/04/10 09:16:29;;;;;;;0.50;0.10;;;13.40;45.20;;;;;;5076977;28;20178;-67
2022/04/10 09:21:37;;;;;;;1.85;0.20;;;13.40;45.20;;;;;;5130046;27;20438;-66
2022/04/10 09:24:07;;;;;;;1.27;0.20;;;13.40;45.20;;;;;;5128456;28;20066;-66
2022/04/10 09:26:55;;;;;;;1.23;0.10;;;13.40;45.10;;;;;;5128030;28;20035;-67
2022/04/10 09:29:23;;;;;;;1.23;0.20;;;13.40;44.90;;;;;;5127979;28;20039;-68
2022/04/10 09:31:50;;;;;;;0.55;0.10;;;13.50;44.90;;;;;;5128906;27;20039;-66
2022/04/10 09:34:18;;;;;;;0.85;0.10;;;13.50;44.80;;;;;;5127458;27;20064;-67
2022/04/10 09:36:46;;;;;;;1.38;0.20;;;13.50;44.70;;;;;;5129438;27;20043;-67
2022/04/10 09:39:15;;;;;;;0.75;0.10;;;13.50;44.80;;;;;;5128201;28;20075;-68
2022/04/10 09:41:43;;;;;;;1.80;0.30;;;13.50;44.70;;;;;;5130211;27;20039;-68
2022/04/10 09:44:17;;;;;;;2.97;0.35;;;13.50;44.70;;;;;;5128721;28;20047;-67
2022/04/10 09:46:43;;;;;;;2.17;0.30;;;13.60;44.50;;;;;;5128273;28;20566;-66
2022/04/10 09:49:17;;;;;;;0.75;0.30;;;13.70;44.40;;;;;;5127516;28;20036;-68
2022/04/10 09:54:46;;;;;;;2.50;0.20;;;14.00;43.90;;;;;;5128865;27;20201;-67
2022/04/10 09:57:20;;;;;;;2.08;0.20;;;13.90;43.50;;;;;;5125724;27;20046;-65
2022/04/10 10:02:25;;;;;;;3.60;0.20;;;14.10;43.30;;;;;;5152114;27;1165450;-67
2022/04/10 10:04:50;;;;;;;2.78;0.52;;;14.40;43.00;;;;;;5152481;27;20268;-67
2022/04/10 10:07:19;;;;;;;1.48;0.17;;;14.40;42.90;;;;;;5152401;27;20070;-65
2022/04/10 10:09:46;;;;;;;1.48;0.30;;;14.40;42.80;;;;;;5170898;27;20046;-67
2022/04/10 10:12:13;;;;;;;1.45;0.25;;;14.40;42.70;;;;;;5152273;27;20053;-67
2022/04/10 10:14:39;;;;;;;2.78;0.32;;;14.40;42.70;;;;;;5170710;27;20086;-66
2022/04/10 10:17:07;;;;;;;2.75;0.10;;;14.40;42.80;;;;;;5152325;27;20142;-64
2022/04/10 10:19:35;;;;;;;2.15;0.45;;;14.30;42.70;;;;;;5152231;27;20086;-65
2022/04/10 10:22:02;;;;;;;0.93;0.13;;;14.30;42.70;;;;;;5171572;27;20114;-67
2022/04/10 10:24:33;;;;;;;1.95;0.20;;;14.40;42.70;;;;;;5152030;27;20103;-67
2022/04/10 10:32:43;;;;;;;2.28;0.20;;;14.40;42.60;;;;;;5108730;27;20764;-65
2022/04/10 10:35:11;;;;;;;1.15;0.50;;;14.60;42.10;;;;;;5090984;28;20439;-65
2022/04/10 10:37:53;;;;;;;1.65;0.20;;;14.60;42.10;;;;;;5108940;28;20082;-69
2022/04/10 10:40:21;;;;;;;1.95;0.20;;;14.60;42.00;;;;;;5090214;28;20491;-68
2022/04/10 10:42:50;;;;;;;1.00;0.28;;;14.60;42.00;;;;;;5090765;28;20040;-67
2022/04/10 10:45:41;;;;;;;1.00;0.20;;;14.70;42.00;;;;;;5109268;28;20036;-65
2022/04/10 10:48:42;;;;;;;1.27;0.10;;;14.60;41.90;;;;;;5090486;28;20094;-67
2022/04/10 10:53:53;;;;;;;1.27;0.10;;;14.60;41.90;;;;;;5107847;27;20388;-67
2022/04/10 10:56:27;;;;;;;0.70;0.43;;;14.60;42.00;;;;;;5089964;28;20048;-68
2022/04/10 10:58:56;;;;;;;1.75;0.20;;;14.60;41.90;;;;;;5090331;28;20044;-66
2022/04/10 11:01:25;;;;;;;1.67;0.20;;;14.60;41.80;;;;;;5090514;28;20082;-68
2022/04/10 11:04:09;;;;;;;2.15;0.30;;;14.60;41.80;;;;;;5074066;28;20134;-68
2022/04/10 11:06:44;;;;;;;2.80;0.20;;;14.60;41.70;;;;;;5090342;28;20051;-68
2022/04/10 11:09:31;;;;;;;1.88;0.30;;;14.60;41.70;;;;;;5090720;28;20043;-66
2022/04/10 11:12:00;;;;;;;2.08;0.10;;;14.60;41.70;;;;;;5090106;28;20046;-66
2022/04/10 11:14:44;;;;;;;1.23;0.13;;;14.60;41.70;;;;;;5089958;28;20399;-65
2022/04/10 11:17:25;;;;;;;1.42;0.20;;;14.60;41.70;;;;;;5090411;28;20268;-67
2022/04/10 11:20:09;;;;;;;1.10;0.20;;;14.60;41.80;;;;;;5089981;28;20047;-65
2022/04/10 11:22:39;;;;;;;0.60;0.20;;;14.60;41.80;;;;;;5090430;28;20052;-68
2022/04/10 11:25:08;;;;;;;1.48;0.25;;;14.50;41.80;;;;;;5090109;28;20119;-67
2022/04/10 11:27:55;;;;;;;1.45;0.40;;;14.50;41.80;;;;;;5089888;28;20073;-65
2022/04/10 11:30:43;;;;;;;3.90;0.20;;;14.50;41.90;;;;;;5108001;28;20043;-68
2022/04/10 11:33:10;;;;;;;2.05;0.40;;;14.50;41.90;;;;;;5089297;28;20390;-68
2022/04/10 11:35:39;;;;;;;1.92;0.30;;;14.50;41.90;;;;;;5089755;28;20046;-65
2022/04/10 11:38:08;;;;;;;1.83;0.30;;;14.50;41.90;;;;;;5089806;28;20090;-65
2022/04/10 11:40:42;;;;;;;1.00;0.13;;;14.50;41.90;;;;;;5089420;28;20123;-68
2022/04/10 11:43:09;;;;;;;1.40;0.20;;;14.40;41.90;;;;;;5090136;28;20047;-68
2022/04/10 11:45:35;;;;;;;1.30;0.20;;;14.40;42.00;;;;;;5090258;28;20390;-65
2022/04/10 11:48:05;;;;;;;1.52;0.30;;;14.40;42.10;;;;;;5089376;28;20454;-66
2022/04/10 11:50:35;;;;;;;1.48;0.20;;;14.40;42.10;;;;;;5089425;28;20043;-65
2022/04/10 11:58:24;;;;;;;1.48;0.20;;;14.40;42.10;;;;;;5129670;27;20353;-69
2022/04/10 12:00:54;;;;;;;1.10;0.10;;;14.50;41.90;;;;;;5128193;27;20452;-68
2022/04/10 12:03:23;;;;;;;0.68;0.17;;;14.50;42.00;;;;;;5110915;28;20042;-68
2022/04/10 12:05:49;;;;;;;0.95;0.17;;;14.50;42.00;;;;;;5128339;28;20062;-67
2022/04/10 12:08:15;;;;;;;1.00;0.10;;;14.50;42.00;;;;;;5127887;28;20058;-67
2022/04/10 12:10:52;;;;;;;1.23;0.10;;;14.50;41.90;;;;;;5127679;28;20537;-66
2022/04/10 12:13:18;;;;;;;0.90;0.20;;;14.60;41.80;;;;;;5127427;28;20039;-65
2022/04/10 12:15:44;;;;;;;1.40;0.20;;;14.60;41.70;;;;;;5144661;27;20053;-65
2022/04/10 12:18:11;;;;;;;1.25;0.20;;;14.60;41.70;;;;;;5127509;28;20289;-66
2022/04/10 12:20:38;;;;;;;1.15;0.10;;;14.60;41.60;;;;;;5128678;27;20046;-67
2022/04/10 12:23:21;;;;;;;1.00;0.10;;;14.60;41.60;;;;;;5128250;28;20447;-68
2022/04/10 12:25:49;;;;;;;1.50;0.20;;;14.60;41.60;;;;;;5128000;28;20145;-66
2022/04/10 12:28:16;;;;;;;1.42;0.10;;;14.60;41.60;;;;;;5128640;27;20093;-65
2022/04/10 12:30:43;;;;;;;2.08;0.20;;;14.70;41.60;;;;;;5127399;28;20122;-67
2022/04/10 12:33:10;;;;;;;1.48;0.20;;;14.70;41.60;;;;;;5127285;27;20047;-68
2022/04/10 12:35:37;;;;;;;1.75;0.17;;;14.60;41.50;;;;;;5126911;27;20088;-70
2022/04/10 12:38:03;;;;;;;0.68;0.15;;;14.70;41.60;;;;;;5127353;28;20187;-66
2022/04/10 12:40:29;;;;;;;1.35;0.17;;;14.70;41.50;;;;;;5127184;28;20051;-68
2022/04/10 12:43:00;;;;;;;2.42;0.22;;;14.80;41.40;;;;;;5144731;27;20061;-65
2022/04/10 12:45:29;;;;;;;1.17;0.22;;;14.80;41.40;;;;;;5127451;28;20032;-66
2022/04/10 12:47:55;;;;;;;3.60;0.30;;;14.80;41.40;;;;;;5128496;27;20129;-69
2022/04/10 12:50:24;;;;;;;1.25;0.20;;;14.70;41.30;;;;;;5126934;27;20049;-68
2022/04/10 12:52:52;;;;;;;1.27;0.15;;;14.70;41.30;;;;;;5126804;28;20058;-68
2022/04/10 12:55:22;;;;;;;1.88;0.20;;;14.70;41.40;;;;;;5127933;27;20091;-70
2022/04/10 13:00:43;;;;;;;2.40;0.20;;;14.70;41.40;;;;;;5129181;27;20428;-65
2022/04/10 13:03:26;;;;;;;2.58;0.28;;;14.60;41.40;;;;;;5128072;28;20122;-67
2022/04/10 13:08:39;;;;;;;1.77;0.40;;;14.70;41.40;;;;;;5151734;27;1171097;-66
2022/04/10 13:11:07;;;;;;;0.40;0.10;;;14.70;41.30;;;;;;5151959;27;20279;-67
2022/04/10 13:13:54;;;;;;;0.40;0.10;;;14.70;41.30;;;;;;5152182;27;20352;-65
2022/04/10 13:16:32;;;;;;;1.02;0.30;;;14.70;41.20;;;;;;5152024;27;20210;-66
2022/04/10 13:19:01;;;;;;;0.73;0.20;;;14.70;41.20;;;;;;5152495;27;20062;-65
2022/04/10 13:21:27;;;;;;;2.92;0.20;;;14.70;41.30;;;;;;5151998;27;20441;-65
2022/04/10 13:23:53;;;;;;;1.63;0.13;;;14.60;41.30;;;;;;5170774;27;20113;-65